Time;durP1;ratioP1;P1;durP2;ratioP2;P2;SDS_P1;SDS_P2;PMS_P1;PMS_P2;Temp;Humidity;BMP_temperature;BMP_pressure;BME280_temperature;BME280_humidity;BME280_pressure;Samples;Min_cycle;Max_cycle;Signal;HPM_P1;HPM_P2
2022/03/23 00:01:19;;;;;;;70.97;31.97;;;5.60;69.80;;;;;;10411214;28;20042;-82
2022/03/23 00:06:20;;;;;;;69.13;30.97;;;5.60;69.80;;;;;;10407915;28;20033;-82
2022/03/23 00:11:21;;;;;;;74.13;32.87;;;5.50;69.80;;;;;;10400934;28;20766;-82
2022/03/23 00:16:21;;;;;;;66.57;32.47;;;5.40;70.60;;;;;;10412343;28;20432;-82
2022/03/23 00:21:22;;;;;;;73.70;30.90;;;5.20;70.90;;;;;;10414576;28;20584;-82
2022/03/23 00:26:23;;;;;;;65.57;29.47;;;5.30;70.90;;;;;;10411986;28;20048;-82
2022/03/23 00:31:24;;;;;;;61.30;28.67;;;5.40;70.80;;;;;;10413127;28;20033;-82
2022/03/23 00:36:24;;;;;;;56.93;26.50;;;5.30;70.70;;;;;;10412854;28;20386;-82
2022/03/23 00:41:25;;;;;;;64.37;29.47;;;5.20;70.70;;;;;;10406068;28;20509;-83
2022/03/23 00:46:26;;;;;;;61.37;28.10;;;5.20;70.70;;;;;;10397000;28;20520;-82
2022/03/23 00:51:26;;;;;;;71.10;31.33;;;5.30;71.60;;;;;;10413032;28;20393;-82
2022/03/23 00:56:27;;;;;;;71.83;31.23;;;5.20;71.20;;;;;;10401442;28;20140;-83
2022/03/23 01:01:29;;;;;;;70.70;31.80;;;5.00;71.60;;;;;;10383065;28;20095;-82
2022/03/23 01:06:29;;;;;;;62.77;29.83;;;4.90;72.10;;;;;;10410896;28;20481;-82
2022/03/23 01:11:31;;;;;;;55.30;25.87;;;4.60;72.70;;;;;;10410604;28;20052;-82
2022/03/23 01:16:32;;;;;;;67.40;29.93;;;4.30;73.10;;;;;;10400217;28;20030;-82
2022/03/23 01:21:32;;;;;;;74.90;32.17;;;4.10;73.70;;;;;;10370424;28;20544;-82
2022/03/23 01:26:33;;;;;;;119.67;52.37;;;3.70;74.70;;;;;;10394338;28;20041;-82
2022/03/23 01:31:34;;;;;;;133.23;59.37;;;3.50;74.90;;;;;;10410899;28;20040;-82
2022/03/23 01:36:35;;;;;;;117.30;49.67;;;3.40;75.30;;;;;;10399497;28;20029;-82
2022/03/23 01:41:38;;;;;;;122.20;51.33;;;3.40;75.50;;;;;;10409653;28;20053;-82
2022/03/23 01:46:57;;;;;;;86.27;37.70;;;3.30;76.10;;;;;;10392946;28;20041;-82
2022/03/23 01:51:58;;;;;;;86.83;35.93;;;3.20;76.60;;;;;;10369822;28;20038;-82
2022/03/23 01:57:00;;;;;;;103.90;44.87;;;3.20;76.80;;;;;;10397446;28;20049;-83
2022/03/23 02:02:01;;;;;;;110.53;47.37;;;3.10;76.80;;;;;;10408071;28;20037;-81
2022/03/23 02:07:03;;;;;;;88.67;39.10;;;3.10;76.70;;;;;;10409557;28;20120;-82
2022/03/23 02:12:08;;;;;;;83.27;37.73;;;3.00;77.60;;;;;;10409406;28;20037;-82
2022/03/23 02:17:08;;;;;;;78.00;35.13;;;2.90;78.40;;;;;;10395189;28;20026;-82
2022/03/23 02:22:09;;;;;;;71.27;33.53;;;2.90;77.90;;;;;;10390600;28;20045;-83
2022/03/23 02:27:09;;;;;;;73.50;32.57;;;2.80;78.10;;;;;;10408373;28;20473;-83
2022/03/23 02:32:13;;;;;;;68.30;32.17;;;2.80;78.40;;;;;;10407240;28;20141;-83
2022/03/23 02:37:13;;;;;;;66.00;30.90;;;2.90;79.10;;;;;;10378864;28;20076;-82
2022/03/23 02:42:14;;;;;;;68.63;29.70;;;2.90;79.00;;;;;;10402110;28;20206;-82
2022/03/23 02:47:16;;;;;;;71.70;30.70;;;2.70;79.10;;;;;;10408426;28;20050;-82
2022/03/23 02:52:16;;;;;;;71.17;32.47;;;2.60;80.00;;;;;;10408213;28;20029;-82
2022/03/23 03:02:42;;;;;;;78.23;34.90;;;2.60;80.30;;;;;;10399800;28;20068;-82
2022/03/23 03:13:02;;;;;;;66.73;30.87;;;2.90;80.40;;;;;;10407802;28;20045;-82
2022/03/23 03:18:03;;;;;;;66.47;28.53;;;3.00;79.90;;;;;;10407058;28;20119;-82
2022/03/23 03:23:04;;;;;;;66.23;30.27;;;3.10;79.70;;;;;;10395635;28;20685;-82
2022/03/23 03:28:05;;;;;;;56.27;26.93;;;3.20;80.10;;;;;;10384685;28;20033;-82
2022/03/23 03:33:05;;;;;;;74.57;32.33;;;3.50;78.90;;;;;;10393883;28;20032;-82
2022/03/23 03:38:07;;;;;;;68.93;31.20;;;3.40;79.00;;;;;;10407354;28;20061;-83
2022/03/23 03:43:08;;;;;;;73.43;34.20;;;2.90;78.90;;;;;;10387618;28;20466;-83
2022/03/23 03:48:08;;;;;;;103.37;41.70;;;2.50;80.10;;;;;;10399506;28;20080;-82
2022/03/23 03:53:09;;;;;;;97.50;42.97;;;2.20;81.10;;;;;;10412599;28;20117;-84
2022/03/23 03:58:12;;;;;;;107.40;48.73;;;2.00;81.10;;;;;;10399189;28;20048;-84
2022/03/23 04:03:14;;;;;;;103.50;46.43;;;1.70;82.10;;;;;;10408422;28;20758;-84
2022/03/23 04:08:14;;;;;;;90.27;40.30;;;1.60;82.90;;;;;;10375405;28;20030;-83
2022/03/23 04:13:15;;;;;;;83.13;40.03;;;1.60;83.50;;;;;;10399740;28;20025;-82
2022/03/23 04:18:16;;;;;;;85.57;39.50;;;1.60;84.60;;;;;;10392879;28;20034;-83
2022/03/23 04:23:16;;;;;;;86.93;39.70;;;1.60;84.80;;;;;;10408097;28;20037;-83
2022/03/23 04:28:17;;;;;;;84.03;40.07;;;1.70;85.70;;;;;;10411530;28;20060;-82
2022/03/23 04:33:18;;;;;;;93.50;44.60;;;1.70;86.10;;;;;;10404677;28;20485;-83
2022/03/23 04:38:19;;;;;;;90.40;40.63;;;1.70;86.30;;;;;;10372451;28;20545;-83
2022/03/23 04:43:20;;;;;;;92.90;42.27;;;1.70;85.80;;;;;;10401114;28;20393;-84
2022/03/23 04:48:21;;;;;;;97.47;43.83;;;1.80;86.60;;;;;;10393615;28;20025;-84
2022/03/23 04:53:21;;;;;;;101.03;44.37;;;1.90;88.70;;;;;;10407040;28;20576;-83
2022/03/23 04:58:22;;;;;;;94.10;45.13;;;2.10;89.90;;;;;;10408208;28;20541;-84
2022/03/23 05:03:25;;;;;;;110.93;53.73;;;2.10;90.00;;;;;;10405143;28;20037;-86
2022/03/23 05:08:26;;;;;;;113.47;52.20;;;2.10;90.80;;;;;;10409315;28;20464;-83
2022/03/23 05:13:26;;;;;;;109.17;51.37;;;2.10;92.50;;;;;;10408912;28;20028;-85
2022/03/23 05:18:28;;;;;;;112.50;50.93;;;2.30;92.40;;;;;;10406408;28;20036;-86
2022/03/23 05:23:28;;;;;;;99.67;48.40;;;2.40;93.00;;;;;;10408769;28;20393;-85
2022/03/23 05:28:29;;;;;;;104.40;51.30;;;2.50;93.00;;;;;;10408158;28;20025;-87
2022/03/23 05:33:30;;;;;;;118.60;58.73;;;2.50;93.00;;;;;;10408599;28;20489;-88
2022/03/23 05:38:30;;;;;;;105.37;51.53;;;2.60;93.30;;;;;;10410123;28;20052;-85
2022/03/23 05:43:31;;;;;;;96.07;50.20;;;2.80;92.90;;;;;;10418692;28;20033;-85
2022/03/23 05:48:31;;;;;;;121.73;60.13;;;2.90;92.80;;;;;;10437323;28;20035;-85
2022/03/23 05:53:32;;;;;;;145.80;69.03;;;3.10;92.50;;;;;;10450314;28;20036;-85
2022/03/23 05:58:37;;;;;;;128.23;59.90;;;3.20;92.30;;;;;;10450063;28;20025;-86
2022/03/23 06:03:37;;;;;;;114.43;56.70;;;3.30;92.40;;;;;;10447980;28;20397;-87
2022/03/23 06:08:38;;;;;;;124.87;62.03;;;3.40;92.50;;;;;;10448108;28;20025;-86
2022/03/23 06:13:38;;;;;;;125.03;62.10;;;3.50;92.60;;;;;;10450825;28;20029;-85
2022/03/23 06:18:40;;;;;;;121.70;61.97;;;3.60;92.50;;;;;;10450418;28;20025;-85
2022/03/23 06:23:41;;;;;;;125.40;62.90;;;3.70;92.40;;;;;;10449310;28;20049;-85
2022/03/23 06:41:41;;;;;;;118.43;62.47;;;3.90;92.20;;;;;;10569003;27;20388;-79
2022/03/23 06:46:42;;;;;;;129.43;68.30;;;5.60;88.30;;;;;;10568999;28;20515;-78
2022/03/23 06:51:43;;;;;;;119.77;64.30;;;5.70;87.90;;;;;;10569192;28;20039;-80
2022/03/23 06:56:43;;;;;;;100.33;51.10;;;5.80;88.00;;;;;;10568550;28;20051;-78
2022/03/23 07:01:44;;;;;;;102.70;55.03;;;5.90;86.40;;;;;;10552670;28;20028;-78
2022/03/23 07:06:45;;;;;;;98.30;51.43;;;6.30;85.70;;;;;;10568296;28;20028;-79
2022/03/23 07:11:45;;;;;;;94.13;46.23;;;6.50;84.90;;;;;;10567818;28;20058;-81
2022/03/23 07:16:46;;;;;;;96.23;45.30;;;6.70;84.40;;;;;;10568854;28;20422;-78
2022/03/23 07:21:46;;;;;;;94.53;47.83;;;7.00;83.60;;;;;;10563167;28;20054;-78
2022/03/23 07:26:47;;;;;;;90.93;47.30;;;7.30;82.20;;;;;;10559630;28;20800;-78
2022/03/23 07:31:48;;;;;;;85.83;44.87;;;7.70;81.80;;;;;;10567363;28;20032;-77
2022/03/23 07:36:49;;;;;;;93.50;50.57;;;8.20;80.90;;;;;;10566585;28;20039;-78
2022/03/23 07:41:52;;;;;;;83.13;46.83;;;8.50;80.30;;;;;;10543816;28;20039;-78
2022/03/23 07:46:52;;;;;;;89.03;46.57;;;8.90;79.30;;;;;;10538352;28;20039;-79
2022/03/23 07:51:53;;;;;;;89.03;46.23;;;9.40;77.10;;;;;;10538961;28;20039;-77
2022/03/23 07:56:54;;;;;;;80.80;42.80;;;9.90;76.50;;;;;;10538751;28;20028;-78
2022/03/23 08:01:54;;;;;;;83.00;44.17;;;10.40;75.10;;;;;;10537626;28;20024;-79
2022/03/23 08:06:55;;;;;;;86.60;44.83;;;10.70;73.90;;;;;;10538859;28;20032;-78
2022/03/23 08:11:56;;;;;;;79.45;44.42;;;11.10;72.80;;;;;;10537397;28;20463;-78
2022/03/23 08:16:56;;;;;;;82.25;44.13;;;11.50;71.00;;;;;;10537768;28;20055;-79
2022/03/23 08:21:57;;;;;;;83.25;46.47;;;12.00;70.30;;;;;;10537197;28;20032;-79
2022/03/23 08:26:59;;;;;;;82.63;46.78;;;12.40;69.40;;;;;;10536592;28;20032;-78
2022/03/23 08:32:00;;;;;;;86.95;48.72;;;12.80;68.00;;;;;;10536923;28;20019;-79
2022/03/23 08:37:00;;;;;;;82.97;47.78;;;13.30;64.80;;;;;;10536311;28;20068;-77
2022/03/23 08:42:01;;;;;;;84.70;51.88;;;13.70;64.10;;;;;;10536470;28;20069;-79
2022/03/23 08:47:02;;;;;;;86.50;50.47;;;14.10;63.70;;;;;;10536594;28;20063;-78
2022/03/23 08:52:03;;;;;;;94.45;58.70;;;14.60;62.30;;;;;;10535350;28;20035;-78
2022/03/23 08:57:04;;;;;;;85.78;51.33;;;15.00;61.70;;;;;;10536135;28;20038;-80
2022/03/23 09:02:05;;;;;;;64.47;37.70;;;15.40;60.30;;;;;;10535944;28;20127;-81
2022/03/23 09:07:05;;;;;;;68.85;41.13;;;15.80;58.20;;;;;;10535792;28;20032;-78
2022/03/23 09:12:06;;;;;;;64.75;37.83;;;16.10;57.10;;;;;;10535460;28;20525;-78
2022/03/23 09:17:07;;;;;;;59.53;37.55;;;16.50;55.60;;;;;;10534764;28;20035;-78
2022/03/23 09:22:08;;;;;;;61.80;39.38;;;16.80;54.20;;;;;;10535217;28;20035;-78
2022/03/23 09:27:08;;;;;;;60.55;35.55;;;17.20;53.70;;;;;;10534942;28;20036;-78
2022/03/23 09:32:11;;;;;;;57.83;34.97;;;17.40;53.40;;;;;;10534632;28;20024;-82
2022/03/23 09:42:31;;;;;;;56.70;33.88;;;18.00;52.10;;;;;;10534684;28;20028;-81
2022/03/23 09:47:32;;;;;;;60.40;34.83;;;18.30;51.10;;;;;;10533792;28;20043;-79
2022/03/23 09:52:33;;;;;;;53.17;31.25;;;18.60;50.20;;;;;;10533731;28;20032;-78
2022/03/23 09:57:33;;;;;;;52.92;32.05;;;18.70;49.40;;;;;;10533466;28;20107;-78
2022/03/23 10:02:40;;;;;;;45.05;26.63;;;19.00;48.80;;;;;;10533522;28;20036;-82
2022/03/23 10:08:12;;;;;;;41.05;24.65;;;19.10;46.40;;;;;;10533304;28;20071;-79
2022/03/23 10:13:38;;;;;;;30.55;18.40;;;19.30;44.00;;;;;;10533570;28;20020;-79
2022/03/23 10:18:55;;;;;;;34.23;19.53;;;19.40;44.60;;;;;;10533352;28;20044;-80
2022/03/23 10:23:59;;;;;;;35.75;19.27;;;19.60;43.30;;;;;;10533374;28;20063;-78
2022/03/23 10:29:00;;;;;;;34.28;18.50;;;19.80;42.60;;;;;;10532778;28;20032;-78
2022/03/23 10:34:07;;;;;;;41.38;24.55;;;20.00;40.80;;;;;;10532492;28;20035;-81
2022/03/23 10:39:11;;;;;;;44.05;25.98;;;20.30;40.70;;;;;;10532845;28;20090;-80
2022/03/23 10:44:19;;;;;;;29.42;16.63;;;20.50;40.10;;;;;;10532828;28;20063;-79
2022/03/23 10:49:38;;;;;;;28.17;17.50;;;20.90;41.50;;;;;;10532784;28;20040;-78
2022/03/23 10:55:03;;;;;;;34.55;20.92;;;21.20;41.50;;;;;;10532635;28;20360;-78
2022/03/23 11:00:34;;;;;;;33.47;19.95;;;21.30;42.30;;;;;;10530725;28;20036;-78
2022/03/23 11:05:34;;;;;;;36.50;20.88;;;21.40;39.50;;;;;;10532540;28;20032;-78
2022/03/23 11:16:02;;;;;;;19.80;12.40;;;21.40;39.70;;;;;;10536865;28;20036;-78
2022/03/23 11:21:03;;;;;;;12.23;7.68;;;21.30;37.10;;;;;;10540287;28;20032;-78
2022/03/23 11:26:11;;;;;;;15.95;8.43;;;21.10;32.60;;;;;;10539263;28;20024;-81
2022/03/23 11:31:16;;;;;;;14.77;7.30;;;21.20;34.80;;;;;;10539504;28;20028;-78
2022/03/23 11:36:19;;;;;;;11.77;6.35;;;21.40;35.60;;;;;;10538984;28;20035;-79
2022/03/23 11:41:20;;;;;;;11.15;6.90;;;21.30;32.70;;;;;;10538621;28;20530;-79
2022/03/23 11:46:25;;;;;;;10.93;6.60;;;21.30;33.00;;;;;;10538744;28;20059;-79
2022/03/23 11:51:39;;;;;;;9.40;6.43;;;21.30;32.50;;;;;;10538474;28;20028;-80
2022/03/23 11:56:45;;;;;;;14.30;6.87;;;21.30;32.40;;;;;;10538328;28;20417;-78
2022/03/23 12:01:46;;;;;;;14.98;8.45;;;21.30;31.70;;;;;;10538262;28;20034;-79
2022/03/23 12:06:57;;;;;;;19.60;9.82;;;21.40;35.00;;;;;;10538030;28;20103;-78
2022/03/23 12:11:57;;;;;;;13.85;8.45;;;21.70;34.40;;;;;;10537925;28;20527;-78
2022/03/23 12:17:05;;;;;;;14.23;8.82;;;22.00;33.60;;;;;;10537529;28;20123;-78
2022/03/23 12:22:06;;;;;;;15.60;8.13;;;22.10;34.50;;;;;;10537233;28;20050;-79
2022/03/23 12:27:16;;;;;;;14.52;8.73;;;21.90;31.60;;;;;;10537260;28;20425;-82
2022/03/23 12:32:17;;;;;;;18.52;8.18;;;21.90;34.20;;;;;;10537223;28;20032;-79
2022/03/23 12:37:19;;;;;;;11.13;6.47;;;22.20;33.10;;;;;;10536916;28;20436;-78
2022/03/23 12:42:31;;;;;;;13.75;7.18;;;22.30;33.70;;;;;;10536985;28;20016;-79
2022/03/23 12:47:35;;;;;;;12.55;6.93;;;22.20;32.40;;;;;;10537267;28;20671;-78
2022/03/23 12:58:03;;;;;;;11.30;6.88;;;22.20;32.10;;;;;;10536081;28;20491;-78
2022/03/23 13:03:06;;;;;;;14.85;7.75;;;22.10;31.90;;;;;;10535906;28;20474;-78
2022/03/23 13:08:27;;;;;;;13.68;7.32;;;22.20;33.40;;;;;;10535483;28;20475;-78
2022/03/23 13:13:30;;;;;;;12.48;7.07;;;22.30;32.30;;;;;;10535211;28;20095;-78
2022/03/23 13:18:31;;;;;;;11.77;7.60;;;22.20;31.80;;;;;;10534808;28;20035;-78
2022/03/23 13:23:33;;;;;;;21.17;10.82;;;22.20;32.80;;;;;;10535394;28;20028;-78
2022/03/23 13:28:46;;;;;;;13.48;6.75;;;22.20;31.90;;;;;;10534909;28;20704;-79
2022/03/23 13:33:50;;;;;;;27.95;14.32;;;22.20;30.90;;;;;;10534504;28;20031;-80
2022/03/23 13:38:56;;;;;;;16.92;9.10;;;22.20;31.60;;;;;;10522350;28;20049;-78
2022/03/23 13:43:57;;;;;;;17.52;8.95;;;22.10;32.20;;;;;;10471233;28;20107;-81
2022/03/23 13:49:01;;;;;;;21.17;11.40;;;21.90;31.00;;;;;;10490617;28;20025;-79
2022/03/23 13:54:05;;;;;;;14.50;8.70;;;21.70;32.60;;;;;;10487238;28;20032;-78
2022/03/23 13:59:07;;;;;;;12.88;8.38;;;21.60;32.40;;;;;;10452273;28;20037;-79
2022/03/23 14:04:09;;;;;;;11.52;6.40;;;21.60;31.80;;;;;;10470821;28;20034;-78
2022/03/23 14:09:12;;;;;;;15.82;8.57;;;21.40;30.80;;;;;;10478054;28;20048;-80
2022/03/23 14:39:51;;;;;;;13.23;8.95;;;21.00;32.30;;;;;;10535828;27;20397;-83
2022/03/23 14:44:53;;;;;;;36.08;20.50;;;21.20;31.80;;;;;;10525856;28;20040;-80
2022/03/23 14:49:55;;;;;;;66.13;32.63;;;20.90;33.30;;;;;;10526514;28;20023;-81
2022/03/23 14:54:56;;;;;;;11.95;7.68;;;20.70;31.90;;;;;;10525862;28;20520;-84
2022/03/23 14:59:56;;;;;;;20.60;11.25;;;20.50;31.30;;;;;;10525690;28;20082;-83
2022/03/23 15:04:57;;;;;;;13.45;7.90;;;20.30;31.90;;;;;;10524672;28;20036;-80
2022/03/23 15:15:20;;;;;;;15.00;7.95;;;20.00;31.90;;;;;;10525619;28;20044;-84
2022/03/23 15:20:24;;;;;;;19.05;9.70;;;19.90;32.10;;;;;;10524359;28;20534;-80
2022/03/23 15:25:24;;;;;;;21.08;11.88;;;19.80;33.40;;;;;;10520862;28;20048;-80
2022/03/23 15:30:25;;;;;;;14.07;8.43;;;19.60;33.30;;;;;;10524440;28;20035;-81
2022/03/23 15:35:25;;;;;;;15.20;8.38;;;19.50;33.10;;;;;;10524957;28;20063;-81
2022/03/23 15:40:27;;;;;;;18.10;11.25;;;19.30;33.60;;;;;;10488951;28;20487;-82
2022/03/23 15:45:28;;;;;;;18.98;10.65;;;19.20;34.30;;;;;;10496338;28;20036;-81
2022/03/23 15:50:31;;;;;;;26.73;15.60;;;19.00;33.30;;;;;;10494762;28;20042;-81
2022/03/23 15:55:32;;;;;;;35.20;20.60;;;19.00;34.10;;;;;;10495584;28;20027;-81
2022/03/23 16:00:32;;;;;;;30.70;15.88;;;18.90;34.10;;;;;;10496528;28;20036;-81
2022/03/23 16:05:34;;;;;;;25.80;13.70;;;18.80;33.90;;;;;;10487516;28;20020;-81
2022/03/23 16:10:35;;;;;;;42.30;18.65;;;18.60;34.40;;;;;;10495909;28;20123;-82
2022/03/23 16:15:36;;;;;;;26.23;14.20;;;18.40;34.30;;;;;;10495405;28;20032;-83
2022/03/23 16:20:38;;;;;;;39.25;18.23;;;18.20;34.50;;;;;;10495322;28;20356;-84
2022/03/23 16:25:39;;;;;;;19.42;10.98;;;17.90;35.60;;;;;;10495056;28;20036;-83
2022/03/23 16:30:39;;;;;;;15.00;8.45;;;17.60;36.40;;;;;;10482556;28;20036;-83
2022/03/23 16:35:40;;;;;;;13.32;7.45;;;17.20;37.10;;;;;;10493310;28;20052;-82
2022/03/23 16:40:41;;;;;;;18.83;10.57;;;16.80;37.20;;;;;;10494513;28;20025;-85
2022/03/23 16:45:42;;;;;;;20.95;11.27;;;16.30;37.60;;;;;;10486583;28;20054;-83
2022/03/23 16:50:43;;;;;;;21.05;12.88;;;15.90;37.60;;;;;;10485062;28;20032;-84
2022/03/23 16:55:43;;;;;;;31.40;14.55;;;15.40;37.80;;;;;;10478483;28;20031;-84
2022/03/23 17:00:44;;;;;;;31.50;15.18;;;15.10;38.10;;;;;;10489861;28;20062;-82
2022/03/23 17:16:25;;;;;;;27.63;14.18;;;14.20;38.20;;;;;;10488016;28;20443;-83
2022/03/23 17:21:26;;;;;;;16.88;8.70;;;14.00;38.10;;;;;;10486133;28;20028;-82
2022/03/23 17:26:27;;;;;;;16.08;6.93;;;14.00;38.20;;;;;;10469799;28;20578;-83
2022/03/23 17:31:27;;;;;;;11.05;5.90;;;13.70;38.60;;;;;;10481410;28;20032;-84
2022/03/23 17:36:28;;;;;;;12.25;5.80;;;13.60;38.90;;;;;;10491017;28;20060;-85
2022/03/23 17:41:31;;;;;;;15.98;7.22;;;13.50;38.90;;;;;;10481989;28;20048;-82
2022/03/23 17:46:32;;;;;;;16.65;8.98;;;13.50;38.70;;;;;;10462539;28;20039;-85
2022/03/23 17:51:32;;;;;;;16.38;8.40;;;13.30;38.60;;;;;;10474697;23;20538;-85
2022/03/23 17:56:33;;;;;;;17.58;8.63;;;13.20;39.80;;;;;;10429943;28;20031;-85
2022/03/23 18:01:38;;;;;;;18.70;9.02;;;13.10;40.10;;;;;;10432766;28;20032;-84
2022/03/23 18:06:39;;;;;;;25.20;11.45;;;12.90;40.30;;;;;;10448514;28;20068;-84
2022/03/23 18:11:41;;;;;;;23.95;12.32;;;12.70;40.90;;;;;;10447787;28;20107;-83
2022/03/23 18:16:43;;;;;;;24.63;12.57;;;12.50;40.90;;;;;;10446787;23;20069;-84
2022/03/23 18:21:44;;;;;;;21.17;11.27;;;12.40;41.00;;;;;;10429235;28;20105;-82
2022/03/23 18:26:46;;;;;;;17.90;9.40;;;12.20;42.80;;;;;;10408032;28;20061;-84
2022/03/23 18:31:46;;;;;;;18.02;9.95;;;12.00;43.10;;;;;;10415936;28;20029;-84
2022/03/23 18:36:47;;;;;;;18.92;8.35;;;11.70;43.00;;;;;;10432194;28;20033;-84
2022/03/23 18:41:48;;;;;;;14.25;7.82;;;11.60;43.50;;;;;;10407592;28;20547;-83
2022/03/23 18:46:48;;;;;;;17.55;7.20;;;11.50;43.80;;;;;;10436715;22;20502;-82
2022/03/23 18:51:50;;;;;;;12.38;6.72;;;11.30;43.40;;;;;;10367872;28;20149;-83
2022/03/23 18:56:51;;;;;;;13.13;7.32;;;11.20;43.90;;;;;;10378515;28;20022;-83
2022/03/23 19:01:51;;;;;;;11.15;6.45;;;11.00;44.40;;;;;;10391213;28;20026;-86
2022/03/23 19:06:54;;;;;;;10.97;6.77;;;10.90;44.10;;;;;;10374397;28;20038;-83
2022/03/23 19:11:55;;;;;;;14.55;7.60;;;11.00;43.80;;;;;;10425133;22;20057;-87
2022/03/23 19:16:56;;;;;;;19.67;9.25;;;11.00;43.80;;;;;;10429565;28;20037;-83
2022/03/23 19:21:57;;;;;;;24.48;10.55;;;11.00;43.90;;;;;;10430379;28;20478;-84
2022/03/23 19:26:58;;;;;;;24.07;10.70;;;10.90;44.20;;;;;;10445105;28;20033;-85
2022/03/23 19:31:59;;;;;;;17.57;7.67;;;10.70;46.30;;;;;;10439372;28;20392;-82
2022/03/23 19:37:00;;;;;;;16.37;7.43;;;10.50;45.60;;;;;;10446062;28;20361;-83
2022/03/23 19:42:05;;;;;;;15.27;7.63;;;10.60;45.60;;;;;;10427142;28;20025;-82
2022/03/23 19:47:06;;;;;;;13.67;7.37;;;10.50;45.80;;;;;;10445644;28;20504;-81
2022/03/23 19:52:09;;;;;;;22.03;11.87;;;10.50;46.70;;;;;;10445087;28;20687;-86
2022/03/23 19:57:10;;;;;;;33.77;14.70;;;10.30;46.00;;;;;;10446070;28;20032;-84
2022/03/23 20:02:11;;;;;;;30.97;15.80;;;10.30;45.00;;;;;;10461680;22;20879;-84
2022/03/23 20:07:11;;;;;;;60.50;27.57;;;10.20;46.00;;;;;;10406880;28;20041;-81
2022/03/23 20:12:12;;;;;;;266.70;100.47;;;10.00;46.70;;;;;;10393295;28;20031;-85
2022/03/23 20:17:13;;;;;;;315.70;127.43;;;9.80;47.60;;;;;;10404926;28;20034;-84
2022/03/23 20:28:15;;;;;;;141.17;62.83;;;9.60;47.70;;;;;;10403495;28;20140;-83
2022/03/23 20:33:16;;;;;;;113.57;49.87;;;9.20;47.80;;;;;;10399318;28;20119;-87
2022/03/23 20:38:40;;;;;;;90.60;41.03;;;9.10;48.00;;;;;;10395803;28;20057;-83
2022/03/23 20:43:42;;;;;;;130.57;61.93;;;8.80;47.50;;;;;;10405946;28;20028;-83
2022/03/23 20:48:44;;;;;;;165.70;82.83;;;8.80;48.40;;;;;;10396980;28;20528;-82
2022/03/23 20:53:45;;;;;;;185.80;97.13;;;8.50;48.30;;;;;;10399217;28;20049;-84
2022/03/23 20:58:46;;;;;;;160.47;89.70;;;8.50;48.10;;;;;;10400956;28;20025;-83
2022/03/23 21:03:49;;;;;;;145.50;75.93;;;8.50;48.00;;;;;;10401296;28;20581;-84
2022/03/23 21:08:50;;;;;;;87.97;43.83;;;8.50;48.70;;;;;;10398295;28;20038;-84
2022/03/23 21:13:51;;;;;;;110.13;50.80;;;8.40;49.00;;;;;;10397098;28;20033;-86
2022/03/23 21:19:18;;;;;;;136.80;64.00;;;8.30;49.80;;;;;;10386469;28;20033;-84
2022/03/23 21:24:20;;;;;;;139.20;66.60;;;8.30;50.00;;;;;;10400747;28;20021;-84
2022/03/23 21:29:20;;;;;;;141.10;66.47;;;8.10;50.10;;;;;;10389224;28;20065;-86
2022/03/23 21:34:24;;;;;;;140.87;63.97;;;7.90;51.90;;;;;;10383464;28;20546;-87
2022/03/23 21:39:25;;;;;;;137.90;63.97;;;7.50;52.50;;;;;;10384693;28;20834;-83
2022/03/23 21:44:26;;;;;;;184.80;80.73;;;7.10;53.40;;;;;;10388848;28;20025;-84
2022/03/23 21:49:29;;;;;;;140.07;61.77;;;6.80;53.40;;;;;;10391016;28;20480;-84
2022/03/23 21:54:32;;;;;;;131.17;57.87;;;6.60;55.50;;;;;;10387609;28;20509;-84
2022/03/23 21:59:33;;;;;;;149.00;66.57;;;6.40;55.00;;;;;;10398386;28;20059;-85
2022/03/23 22:04:33;;;;;;;224.60;101.37;;;6.30;54.60;;;;;;10396522;28;20064;-83
2022/03/23 22:09:34;;;;;;;118.07;50.40;;;6.20;54.90;;;;;;10396954;28;20041;-85
2022/03/23 22:19:38;;;;;;;122.60;56.60;;;6.60;55.20;;;;;;10364373;28;20501;-84
2022/03/23 22:24:38;;;;;;;114.93;51.80;;;6.30;55.30;;;;;;10367097;28;20030;-84
2022/03/23 22:29:39;;;;;;;113.93;53.37;;;6.10;55.80;;;;;;10354251;28;20537;-83
2022/03/23 22:34:40;;;;;;;126.00;56.13;;;5.90;56.50;;;;;;10361571;28;20460;-84
2022/03/23 22:39:41;;;;;;;121.60;56.27;;;5.70;57.40;;;;;;10353712;28;20026;-83
2022/03/23 22:44:42;;;;;;;124.27;56.40;;;5.50;58.40;;;;;;10360414;28;20528;-86
2022/03/23 22:49:43;;;;;;;129.03;56.10;;;5.40;58.50;;;;;;10355265;28;20038;-84
2022/03/23 22:54:45;;;;;;;121.53;51.90;;;5.30;58.50;;;;;;10359178;28;20030;-84
2022/03/23 22:59:45;;;;;;;116.57;52.77;;;5.30;58.80;;;;;;10363111;28;20049;-83
2022/03/23 23:04:46;;;;;;;135.80;59.17;;;5.30;57.50;;;;;;10369877;28;20029;-84
2022/03/23 23:09:47;;;;;;;145.90;62.17;;;5.60;57.90;;;;;;10372670;28;20444;-85
2022/03/23 23:14:48;;;;;;;141.80;61.23;;;5.80;56.80;;;;;;10374332;28;20038;-83
2022/03/23 23:19:49;;;;;;;141.87;61.80;;;5.80;57.00;;;;;;10373407;28;20026;-83
2022/03/23 23:24:49;;;;;;;133.43;58.40;;;5.70;57.50;;;;;;10373194;28;20022;-84
2022/03/23 23:29:54;;;;;;;132.13;58.67;;;5.40;58.40;;;;;;10373704;28;20024;-84
2022/03/23 23:34:57;;;;;;;129.67;56.47;;;5.20;59.10;;;;;;10377357;28;20064;-84
2022/03/23 23:39:59;;;;;;;124.97;54.97;;;4.90;60.00;;;;;;10397366;28;20038;-83
2022/03/23 23:45:00;;;;;;;112.03;50.13;;;4.70;60.00;;;;;;10371974;28;20037;-84
2022/03/23 23:50:01;;;;;;;89.53;40.40;;;4.60;59.90;;;;;;10371013;28;20032;-84
2022/03/23 23:55:01;;;;;;;90.87;40.33;;;4.60;59.60;;;;;;10370756;28;20479;-83
